Time;durP1;ratioP1;P1;durP2;ratioP2;P2;SDS_P1;SDS_P2;PMS_P1;PMS_P2;Temp;Humidity;BMP_temperature;BMP_pressure;BME280_temperature;BME280_humidity;BME280_pressure;Samples;Min_cycle;Max_cycle;Signal;HPM_P1;HPM_P2
2022/07/19 00:04:43;;;;;;;4.60;3.00;;;;;;;;;;10356031;28;20030;-76
2022/07/19 00:09:43;;;;;;;6.30;2.88;;;;;;;;;;10354816;28;20120;-75
2022/07/19 00:14:43;;;;;;;4.80;2.75;;;;;;;;;;10355475;28;20040;-75
2022/07/19 00:19:44;;;;;;;3.50;2.85;;;;;;;;;;10355356;28;20040;-76
2022/07/19 00:24:44;;;;;;;4.88;3.17;;;;;;;;;;10355248;28;20494;-76
2022/07/19 00:29:44;;;;;;;3.10;2.60;;;;;;;;;;10372990;28;20072;-76
2022/07/19 00:34:44;;;;;;;4.30;2.10;;;;;;;;;;10355255;28;20136;-75
2022/07/19 00:39:45;;;;;;;4.03;2.45;;;;;;;;;;10354825;28;20033;-76
2022/07/19 00:44:45;;;;;;;5.43;3.00;;;;;;;;;;10354632;28;20030;-76
2022/07/19 00:49:45;;;;;;;4.38;2.13;;;;;;;;;;10354543;28;20033;-76
2022/07/19 00:54:46;;;;;;;7.93;2.20;;;;;;;;;;10354284;28;20029;-76
2022/07/19 00:59:49;;;;;;;3.50;2.50;;;;;;;;;;10354166;28;20416;-77
2022/07/19 01:04:49;;;;;;;3.45;2.58;;;;;;;;;;10371794;28;20447;-75
2022/07/19 01:09:50;;;;;;;2.83;2.58;;;;;;;;;;10371709;28;20033;-76
2022/07/19 01:14:55;;;;;;;5.07;2.72;;;;;;;;;;10353879;28;20034;-76
2022/07/19 01:19:55;;;;;;;5.80;2.50;;;;;;;;;;10353366;28;20542;-75
2022/07/19 01:24:55;;;;;;;3.22;2.58;;;;;;;;;;10353560;28;20077;-75
2022/07/19 01:29:55;;;;;;;3.25;2.53;;;;;;;;;;10353310;28;20033;-75
2022/07/19 01:34:56;;;;;;;8.13;2.30;;;;;;;;;;10353587;28;20034;-75
2022/07/19 01:39:58;;;;;;;4.68;2.67;;;;;;;;;;10353000;28;20419;-75
2022/07/19 01:44:58;;;;;;;6.78;2.30;;;;;;;;;;10353163;28;20113;-75
2022/07/19 01:49:58;;;;;;;6.35;2.92;;;;;;;;;;10370756;28;20118;-75
2022/07/19 01:54:58;;;;;;;9.77;2.83;;;;;;;;;;10352981;28;20496;-75
2022/07/19 01:59:59;;;;;;;2.95;2.30;;;;;;;;;;10352588;28;20293;-75
2022/07/19 02:04:59;;;;;;;4.47;3.00;;;;;;;;;;10352800;28;20124;-75
2022/07/19 02:09:59;;;;;;;4.57;2.90;;;;;;;;;;10352620;28;20026;-75
2022/07/19 02:15:00;;;;;;;3.30;2.83;;;;;;;;;;10352645;28;20128;-76
2022/07/19 02:20:00;;;;;;;3.87;3.00;;;;;;;;;;10352523;28;20026;-75
2022/07/19 02:25:01;;;;;;;7.25;3.63;;;;;;;;;;10353608;28;20042;-75
2022/07/19 02:30:02;;;;;;;3.63;2.40;;;;;;;;;;10352438;28;20380;-75
2022/07/19 02:35:03;;;;;;;2.65;2.42;;;;;;;;;;10358484;28;20034;-76
2022/07/19 02:40:04;;;;;;;2.75;2.55;;;;;;;;;;10360404;28;20036;-74
2022/07/19 02:45:04;;;;;;;2.83;2.30;;;;;;;;;;10359608;28;20030;-74
2022/07/19 02:50:05;;;;;;;4.30;3.25;;;;;;;;;;10359263;28;20064;-75
2022/07/19 02:55:05;;;;;;;6.80;2.65;;;;;;;;;;10358990;28;20080;-74
2022/07/19 03:00:10;;;;;;;8.68;3.20;;;;;;;;;;10358424;28;20096;-75
2022/07/19 03:05:10;;;;;;;8.55;2.80;;;;;;;;;;10358778;28;20467;-75
2022/07/19 03:10:10;;;;;;;5.97;2.57;;;;;;;;;;10376097;28;20030;-75
2022/07/19 03:15:10;;;;;;;5.77;2.67;;;;;;;;;;10358344;28;20408;-75
2022/07/19 03:20:11;;;;;;;13.10;2.65;;;;;;;;;;10357964;28;20408;-75
2022/07/19 03:25:11;;;;;;;6.47;2.90;;;;;;;;;;10358199;28;20593;-75
2022/07/19 03:30:11;;;;;;;3.08;2.67;;;;;;;;;;10357323;28;20715;-75
2022/07/19 03:35:12;;;;;;;7.03;2.47;;;;;;;;;;10357562;28;20030;-74
2022/07/19 03:40:12;;;;;;;6.35;2.80;;;;;;;;;;10357110;28;20743;-75
2022/07/19 03:45:13;;;;;;;8.18;2.80;;;;;;;;;;10356997;28;20030;-75
2022/07/19 03:50:13;;;;;;;2.80;2.60;;;;;;;;;;10356868;28;20117;-75
2022/07/19 03:55:13;;;;;;;4.63;2.40;;;;;;;;;;10357121;28;20033;-75
2022/07/19 04:00:13;;;;;;;2.85;2.55;;;;;;;;;;10356378;28;20515;-75
2022/07/19 04:05:14;;;;;;;3.75;3.03;;;;;;;;;;10356533;28;20120;-75
2022/07/19 04:10:14;;;;;;;8.20;2.33;;;;;;;;;;10355831;28;20033;-75
2022/07/19 04:15:15;;;;;;;3.95;2.25;;;;;;;;;;10355810;28;20273;-75
2022/07/19 04:20:15;;;;;;;5.30;2.80;;;;;;;;;;10355535;28;20034;-74
2022/07/19 04:25:15;;;;;;;4.43;3.20;;;;;;;;;;10355335;28;20073;-75
2022/07/19 04:30:15;;;;;;;9.82;2.42;;;;;;;;;;10355091;28;20030;-76
2022/07/19 04:35:16;;;;;;;8.88;2.97;;;;;;;;;;10354883;28;20029;-74
2022/07/19 04:40:16;;;;;;;3.70;2.63;;;;;;;;;;10372381;28;20033;-74
2022/07/19 04:45:16;;;;;;;6.22;2.70;;;;;;;;;;10354838;28;20041;-75
2022/07/19 04:50:17;;;;;;;6.22;2.30;;;;;;;;;;10354306;28;20074;-75
2022/07/19 04:55:17;;;;;;;6.20;2.88;;;;;;;;;;10353458;28;20033;-75
2022/07/19 05:00:17;;;;;;;3.17;2.07;;;;;;;;;;10353626;28;20038;-75
2022/07/19 05:05:17;;;;;;;4.67;2.03;;;;;;;;;;10353732;28;20030;-74
2022/07/19 05:10:18;;;;;;;5.75;2.38;;;;;;;;;;10371082;28;20030;-75
2022/07/19 05:15:18;;;;;;;11.60;2.15;;;;;;;;;;10353311;28;20034;-75
2022/07/19 05:20:18;;;;;;;6.38;2.22;;;;;;;;;;10353078;28;20038;-76
2022/07/19 05:25:19;;;;;;;6.63;2.07;;;;;;;;;;10353345;28;20120;-75
2022/07/19 05:30:19;;;;;;;7.07;1.90;;;;;;;;;;10352946;28;20049;-74
2022/07/19 05:35:19;;;;;;;7.30;2.13;;;;;;;;;;10352948;28;20482;-75
2022/07/19 05:40:20;;;;;;;7.10;1.67;;;;;;;;;;10352647;28;20515;-74
2022/07/19 05:45:20;;;;;;;8.85;2.20;;;;;;;;;;10352469;28;20120;-74
2022/07/19 05:50:20;;;;;;;2.50;1.52;;;;;;;;;;10352313;28;20496;-76
2022/07/19 05:55:20;;;;;;;1.88;1.35;;;;;;;;;;10352166;28;20044;-75
2022/07/19 06:00:21;;;;;;;6.32;1.58;;;;;;;;;;10351720;28;20049;-74
2022/07/19 06:05:22;;;;;;;9.30;2.17;;;;;;;;;;10352279;28;20062;-76
2022/07/19 06:10:22;;;;;;;4.10;1.80;;;;;;;;;;10359375;28;20174;-75
2022/07/19 06:15:23;;;;;;;10.38;1.90;;;;;;;;;;10360383;28;20030;-76
2022/07/19 06:20:23;;;;;;;10.35;1.95;;;;;;;;;;10360547;28;20040;-75
2022/07/19 06:25:23;;;;;;;7.00;1.60;;;;;;;;;;10359743;28;20026;-74
2022/07/19 06:30:23;;;;;;;4.30;1.35;;;;;;;;;;10359658;28;20041;-74
2022/07/19 06:35:24;;;;;;;8.45;1.73;;;;;;;;;;10359454;28;20107;-75
2022/07/19 06:40:24;;;;;;;6.10;2.40;;;;;;;;;;10359267;28;20041;-75
2022/07/19 06:45:25;;;;;;;2.25;1.50;;;;;;;;;;10359233;28;20030;-76
2022/07/19 06:50:25;;;;;;;3.67;1.40;;;;;;;;;;10359129;28;20038;-75
2022/07/19 06:55:25;;;;;;;4.68;1.63;;;;;;;;;;10376466;28;20025;-75
2022/07/19 07:00:26;;;;;;;5.87;1.20;;;;;;;;;;10358675;28;20073;-75
2022/07/19 07:05:26;;;;;;;5.10;1.25;;;;;;;;;;10375332;28;20124;-75
2022/07/19 07:10:26;;;;;;;3.97;1.30;;;;;;;;;;10358139;28;20495;-75
2022/07/19 07:15:26;;;;;;;3.07;1.20;;;;;;;;;;10375820;28;20041;-75
2022/07/19 07:20:27;;;;;;;6.03;1.33;;;;;;;;;;10357173;28;20509;-74
2022/07/19 07:25:27;;;;;;;7.68;1.52;;;;;;;;;;10357722;28;20492;-74
2022/07/19 07:30:27;;;;;;;7.38;1.40;;;;;;;;;;10357345;28;20033;-75
2022/07/19 07:35:28;;;;;;;6.27;1.60;;;;;;;;;;10375155;28;20033;-75
2022/07/19 07:40:28;;;;;;;1.92;1.20;;;;;;;;;;10374538;28;20025;-75
2022/07/19 07:45:29;;;;;;;2.38;0.85;;;;;;;;;;10356810;28;20114;-75
2022/07/19 07:50:29;;;;;;;3.80;1.40;;;;;;;;;;10356907;28;20149;-74
2022/07/19 07:55:29;;;;;;;4.37;1.03;;;;;;;;;;10356415;28;20116;-75
2022/07/19 08:00:29;;;;;;;2.13;0.80;;;;;;;;;;10356011;28;20492;-74
2022/07/19 08:05:31;;;;;;;5.90;1.10;;;;;;;;;;10356108;28;20038;-74
2022/07/19 08:10:32;;;;;;;4.72;1.02;;;;;;;;;;10356140;28;20069;-75
2022/07/19 08:15:33;;;;;;;4.88;1.60;;;;;;;;;;10355876;28;20045;-75
2022/07/19 08:20:33;;;;;;;3.85;1.20;;;;;;;;;;10355290;28;20034;-75
2022/07/19 08:25:34;;;;;;;6.10;1.38;;;;;;;;;;10355538;28;20037;-76
2022/07/19 08:30:34;;;;;;;1.17;0.90;;;;;;;;;;10354487;28;20037;-76
2022/07/19 08:35:35;;;;;;;5.28;1.00;;;;;;;;;;10372678;28;20786;-73
2022/07/19 08:40:39;;;;;;;1.58;1.00;;;;;;;;;;10354565;28;20033;-74
2022/07/19 08:45:41;;;;;;;1.45;0.90;;;;;;;;;;10354584;28;20030;-73
2022/07/19 08:50:41;;;;;;;6.90;1.17;;;;;;;;;;10372021;28;20113;-74
2022/07/19 08:55:41;;;;;;;1.10;0.80;;;;;;;;;;10354173;28;20141;-74
2022/07/19 09:00:41;;;;;;;3.33;1.00;;;;;;;;;;10353960;28;20049;-74
2022/07/19 09:05:42;;;;;;;2.75;1.00;;;;;;;;;;10353703;28;20457;-74
2022/07/19 09:16:08;;;;;;;2.92;1.10;;;;;;;;;;10372045;28;20116;-75
2022/07/19 09:21:08;;;;;;;2.20;1.00;;;;;;;;;;10353522;28;20129;-74
2022/07/19 09:26:08;;;;;;;1.00;0.90;;;;;;;;;;10353501;28;20030;-75
2022/07/19 09:31:09;;;;;;;1.98;0.98;;;;;;;;;;10353033;28;20041;-74
2022/07/19 09:36:13;;;;;;;1.27;0.70;;;;;;;;;;10352743;28;20064;-74
2022/07/19 09:41:14;;;;;;;2.20;0.77;;;;;;;;;;10352403;28;20034;-75
2022/07/19 09:46:26;;;;;;;3.15;0.70;;;;;;;;;;10352824;28;20065;-75
2022/07/19 09:51:27;;;;;;;2.22;0.90;;;;;;;;;;10352739;28;20411;-74
2022/07/19 09:56:28;;;;;;;0.75;0.60;;;;;;;;;;10352864;28;20124;-74
2022/07/19 10:01:29;;;;;;;1.10;1.00;;;;;;;;;;10352151;28;20046;-75
2022/07/19 10:06:30;;;;;;;4.03;0.90;;;;;;;;;;10370131;28;20488;-75
2022/07/19 10:11:31;;;;;;;6.63;0.98;;;;;;;;;;10352472;28;20128;-75
2022/07/19 10:16:44;;;;;;;1.92;1.10;;;;;;;;;;10352261;28;20179;-75
2022/07/19 10:21:45;;;;;;;6.25;1.20;;;;;;;;;;10352045;28;20030;-75
2022/07/19 10:26:45;;;;;;;1.25;1.15;;;;;;;;;;10351897;28;20492;-75
2022/07/19 10:32:02;;;;;;;1.70;1.08;;;;;;;;;;10352011;28;20034;-74
2022/07/19 10:37:03;;;;;;;2.78;1.27;;;;;;;;;;10369649;28;20036;-75
2022/07/19 10:42:11;;;;;;;3.55;1.27;;;;;;;;;;10351569;28;20125;-74
2022/07/19 10:47:11;;;;;;;5.05;1.67;;;;;;;;;;10351588;28;20036;-74
2022/07/19 10:52:26;;;;;;;3.88;1.05;;;;;;;;;;10351751;28;20124;-75
2022/07/19 10:57:35;;;;;;;2.40;1.13;;;;;;;;;;10376248;28;20041;-74
2022/07/19 11:02:35;;;;;;;1.58;1.05;;;;;;;;;;10377499;28;20058;-74
2022/07/19 11:07:35;;;;;;;3.72;1.20;;;;;;;;;;10358215;28;20067;-74
2022/07/19 11:12:36;;;;;;;4.88;1.40;;;;;;;;;;10358117;28;20042;-74
2022/07/19 11:17:37;;;;;;;2.65;1.52;;;;;;;;;;10358076;28;20557;-74
2022/07/19 11:22:38;;;;;;;5.97;1.50;;;;;;;;;;10357791;28;20065;-75
2022/07/19 11:27:43;;;;;;;3.63;1.80;;;;;;;;;;10357627;28;20026;-75
2022/07/19 11:32:49;;;;;;;1.70;1.38;;;;;;;;;;10357638;28;20034;-74
2022/07/19 11:37:51;;;;;;;2.90;1.63;;;;;;;;;;10357289;28;20408;-74
2022/07/19 11:42:52;;;;;;;8.57;1.83;;;;;;;;;;10356988;28;20042;-75
2022/07/19 11:47:53;;;;;;;1.83;1.42;;;;;;;;;;10357113;28;20038;-75
2022/07/19 11:52:55;;;;;;;6.38;1.70;;;;;;;;;;10356314;28;20091;-74
2022/07/19 11:57:56;;;;;;;2.42;1.52;;;;;;;;;;10374017;28;20121;-75
2022/07/19 12:02:57;;;;;;;2.95;1.35;;;;;;;;;;10355827;28;20550;-74
2022/07/19 12:07:59;;;;;;;5.05;1.48;;;;;;;;;;10373600;28;20065;-74
2022/07/19 12:13:00;;;;;;;4.93;1.50;;;;;;;;;;10373252;28;20562;-74
2022/07/19 12:18:00;;;;;;;7.60;1.48;;;;;;;;;;10355714;28;20042;-74
2022/07/19 12:23:16;;;;;;;5.03;1.85;;;;;;;;;;10355274;28;20062;-74
2022/07/19 12:28:25;;;;;;;5.22;1.85;;;;;;;;;;10355442;28;20036;-75
2022/07/19 12:33:25;;;;;;;2.85;1.92;;;;;;;;;;10355110;28;20171;-74
2022/07/19 12:38:32;;;;;;;2.05;1.85;;;;;;;;;;10354684;28;20557;-75
2022/07/19 12:43:33;;;;;;;5.72;1.38;;;;;;;;;;10354515;28;20508;-75
2022/07/19 12:48:33;;;;;;;4.45;2.03;;;;;;;;;;10354040;28;20033;-75
2022/07/19 12:53:33;;;;;;;6.65;1.63;;;;;;;;;;10354464;28;20092;-75
2022/07/19 13:03:52;;;;;;;1.77;1.50;;;;;;;;;;10371139;28;20058;-74
2022/07/19 13:08:52;;;;;;;2.15;1.80;;;;;;;;;;10354274;28;20116;-75
2022/07/19 13:13:53;;;;;;;2.50;1.40;;;;;;;;;;10353505;28;20127;-76
2022/07/19 13:18:53;;;;;;;4.97;1.53;;;;;;;;;;10353023;28;20451;-75
2022/07/19 13:23:54;;;;;;;6.75;1.70;;;;;;;;;;10353233;28;20037;-75
2022/07/19 13:28:54;;;;;;;4.55;1.10;;;;;;;;;;10353340;28;20029;-75
2022/07/19 13:33:54;;;;;;;3.40;1.57;;;;;;;;;;10353268;28;20088;-75
2022/07/19 13:38:55;;;;;;;2.47;1.25;;;;;;;;;;10353078;28;20489;-74
2022/07/19 13:43:55;;;;;;;4.72;1.58;;;;;;;;;;10352830;28;20124;-75
2022/07/19 13:48:55;;;;;;;6.93;1.57;;;;;;;;;;10352469;28;20030;-75
2022/07/19 13:53:56;;;;;;;2.03;1.42;;;;;;;;;;10352361;28;20043;-75
2022/07/19 13:58:56;;;;;;;2.72;1.25;;;;;;;;;;10352231;28;20137;-74
2022/07/19 14:03:56;;;;;;;7.57;1.52;;;;;;;;;;10352138;28;20057;-73
2022/07/19 14:08:56;;;;;;;1.90;1.15;;;;;;;;;;10352058;28;20041;-75
2022/07/19 14:13:57;;;;;;;1.83;1.10;;;;;;;;;;10352087;28;20121;-75
2022/07/19 14:18:57;;;;;;;2.63;1.40;;;;;;;;;;10369777;28;20569;-75
2022/07/19 14:23:57;;;;;;;1.30;1.03;;;;;;;;;;10351895;28;20084;-74
2022/07/19 14:28:57;;;;;;;2.30;1.23;;;;;;;;;;10354846;28;20034;-76
2022/07/19 14:33:58;;;;;;;4.30;1.10;;;;;;;;;;10381743;28;20065;-75
2022/07/19 14:38:58;;;;;;;5.03;1.90;;;;;;;;;;10359234;28;20502;-75
2022/07/19 14:43:58;;;;;;;4.10;1.70;;;;;;;;;;10358872;28;20479;-75
2022/07/19 14:48:58;;;;;;;4.20;1.20;;;;;;;;;;10376581;28;20113;-75
2022/07/19 14:54:01;;;;;;;1.38;1.13;;;;;;;;;;10376773;28;20499;-74
2022/07/19 14:59:02;;;;;;;2.35;1.60;;;;;;;;;;10358730;28;20026;-76
2022/07/19 15:04:02;;;;;;;5.93;1.17;;;;;;;;;;10376168;28;20061;-75
2022/07/19 15:09:02;;;;;;;3.05;1.30;;;;;;;;;;10358105;28;20116;-74
2022/07/19 15:14:03;;;;;;;2.37;1.10;;;;;;;;;;10375670;28;20041;-75
2022/07/19 15:19:04;;;;;;;3.95;1.67;;;;;;;;;;10358392;28;20038;-74
2022/07/19 15:24:05;;;;;;;2.22;1.40;;;;;;;;;;10357280;28;20041;-74
2022/07/19 15:29:05;;;;;;;6.82;1.48;;;;;;;;;;10357030;28;20037;-75
2022/07/19 15:34:05;;;;;;;4.33;1.90;;;;;;;;;;10357379;28;20046;-74
2022/07/19 15:39:06;;;;;;;6.03;1.90;;;;;;;;;;10356356;28;20052;-74
2022/07/19 15:44:07;;;;;;;3.78;1.73;;;;;;;;;;10356795;28;20037;-75
2022/07/19 15:49:07;;;;;;;2.38;1.50;;;;;;;;;;10374435;28;20057;-76
2022/07/19 15:54:07;;;;;;;3.45;1.40;;;;;;;;;;10356678;28;20034;-75
2022/07/19 15:59:08;;;;;;;2.40;1.43;;;;;;;;;;10374042;28;20054;-75
2022/07/19 16:04:08;;;;;;;1.55;1.20;;;;;;;;;;10374274;28;20124;-74
2022/07/19 16:09:08;;;;;;;3.03;1.48;;;;;;;;;;10373858;28;20057;-76
2022/07/19 16:14:08;;;;;;;2.30;1.10;;;;;;;;;;10373759;28;20128;-74
2022/07/19 16:19:09;;;;;;;4.07;1.40;;;;;;;;;;10355644;28;20030;-74
2022/07/19 16:24:09;;;;;;;6.07;2.03;;;;;;;;;;10355171;28;20484;-75
2022/07/19 16:29:10;;;;;;;2.13;1.50;;;;;;;;;;10355250;28;20034;-74
2022/07/19 16:34:10;;;;;;;3.15;1.60;;;;;;;;;;10355246;28;20041;-74
2022/07/19 16:39:11;;;;;;;2.90;1.40;;;;;;;;;;10372419;28;20038;-75
2022/07/19 16:44:11;;;;;;;3.05;2.28;;;;;;;;;;10354518;28;20038;-75
2022/07/19 16:49:11;;;;;;;2.07;1.20;;;;;;;;;;10354480;28;20120;-75
2022/07/19 16:54:12;;;;;;;2.97;1.55;;;;;;;;;;10371235;28;20100;-75
2022/07/19 16:59:12;;;;;;;4.07;1.17;;;;;;;;;;10354033;28;20045;-74
2022/07/19 17:04:12;;;;;;;3.97;1.67;;;;;;;;;;10353888;28;20574;-75
2022/07/19 17:09:12;;;;;;;3.20;1.60;;;;;;;;;;10353791;28;20022;-75
2022/07/19 17:14:13;;;;;;;4.97;1.17;;;;;;;;;;10337709;28;20134;-75
2022/07/19 17:19:13;;;;;;;4.13;1.48;;;;;;;;;;10353693;28;20492;-75
2022/07/19 17:24:13;;;;;;;2.80;1.77;;;;;;;;;;10353236;28;20462;-74
2022/07/19 17:29:13;;;;;;;4.38;1.70;;;;;;;;;;10381671;28;20173;-75
2022/07/19 17:34:14;;;;;;;6.53;1.88;;;;;;;;;;10353310;28;20041;-74
2022/07/19 17:39:14;;;;;;;5.25;1.50;;;;;;;;;;10370557;28;20036;-74
2022/07/19 17:44:16;;;;;;;5.07;2.08;;;;;;;;;;10352579;28;20030;-74
2022/07/19 17:49:16;;;;;;;3.05;1.80;;;;;;;;;;10352507;28;20096;-74
2022/07/19 17:54:16;;;;;;;5.15;1.65;;;;;;;;;;10352290;28;20037;-76
2022/07/19 17:59:17;;;;;;;2.28;1.33;;;;;;;;;;10352604;28;20065;-74
2022/07/19 18:04:17;;;;;;;2.65;1.50;;;;;;;;;;10357830;28;20121;-75
2022/07/19 18:09:17;;;;;;;3.25;1.27;;;;;;;;;;10360534;28;20034;-74
2022/07/19 18:14:18;;;;;;;5.88;2.50;;;;;;;;;;10360866;28;20534;-74
2022/07/19 18:19:18;;;;;;;5.47;1.83;;;;;;;;;;10360165;28;20042;-75
2022/07/19 18:24:18;;;;;;;10.57;2.40;;;;;;;;;;10359928;28;20427;-74
2022/07/19 18:29:19;;;;;;;3.97;2.90;;;;;;;;;;10377517;28;20034;-74
2022/07/19 18:34:20;;;;;;;5.35;1.70;;;;;;;;;;10359620;28;20121;-73
2022/07/19 18:39:20;;;;;;;3.92;1.50;;;;;;;;;;10359433;28;20116;-74
2022/07/19 18:44:21;;;;;;;8.15;1.83;;;;;;;;;;10359247;28;20037;-74
2022/07/19 18:49:21;;;;;;;5.85;1.67;;;;;;;;;;10376531;28;20034;-74
2022/07/19 18:54:22;;;;;;;3.60;2.25;;;;;;;;;;10376553;28;20424;-74
2022/07/19 18:59:22;;;;;;;13.87;2.97;;;;;;;;;;10358845;28;20458;-75
2022/07/19 19:04:23;;;;;;;5.20;2.63;;;;;;;;;;10358684;28;20288;-75
2022/07/19 19:09:23;;;;;;;4.07;2.63;;;;;;;;;;10358265;28;20273;-75
2022/07/19 19:14:23;;;;;;;6.35;3.17;;;;;;;;;;10357665;28;20060;-74
2022/07/19 19:19:23;;;;;;;7.03;2.85;;;;;;;;;;10358289;28;20500;-76
2022/07/19 19:24:24;;;;;;;9.98;3.05;;;;;;;;;;10357583;28;20084;-75
2022/07/19 19:29:26;;;;;;;4.68;2.50;;;;;;;;;;10375385;28;20041;-74
2022/07/19 19:34:26;;;;;;;8.50;3.30;;;;;;;;;;10357711;28;20400;-75
2022/07/19 19:39:27;;;;;;;8.52;2.72;;;;;;;;;;10374888;28;20117;-76
2022/07/19 19:44:27;;;;;;;5.43;3.15;;;;;;;;;;10357005;28;20026;-74
2022/07/19 19:49:27;;;;;;;7.40;2.40;;;;;;;;;;10357019;28;20056;-76
2022/07/19 19:54:27;;;;;;;6.72;2.17;;;;;;;;;;10356563;28;20352;-75
2022/07/19 19:59:28;;;;;;;7.25;2.35;;;;;;;;;;10356402;28;20026;-75
2022/07/19 20:04:28;;;;;;;8.70;2.60;;;;;;;;;;10373874;28;20113;-76
2022/07/19 20:09:28;;;;;;;7.15;2.45;;;;;;;;;;10356151;28;20096;-75
2022/07/19 20:14:29;;;;;;;4.17;2.47;;;;;;;;;;10355830;28;20032;-76
2022/07/19 20:19:29;;;;;;;10.13;2.83;;;;;;;;;;10355711;28;20257;-75
2022/07/19 20:24:29;;;;;;;9.93;2.85;;;;;;;;;;10355588;28;20041;-75
2022/07/19 20:29:30;;;;;;;10.10;2.83;;;;;;;;;;10355344;28;20108;-74
2022/07/19 20:34:30;;;;;;;6.70;2.40;;;;;;;;;;10355319;28;20037;-74
2022/07/19 20:39:31;;;;;;;5.63;2.45;;;;;;;;;;10354947;28;20121;-74
2022/07/19 20:44:31;;;;;;;5.65;2.78;;;;;;;;;;10372534;28;20033;-75
2022/07/19 20:49:31;;;;;;;8.52;2.50;;;;;;;;;;10372574;28;20534;-75
2022/07/19 20:54:32;;;;;;;5.97;2.33;;;;;;;;;;10354697;28;20558;-74
2022/07/19 20:59:32;;;;;;;12.93;3.45;;;;;;;;;;10354619;28;20524;-75
2022/07/19 21:04:32;;;;;;;3.70;2.22;;;;;;;;;;10354301;28;20045;-74
2022/07/19 21:09:38;;;;;;;6.63;2.92;;;;;;;;;;10354286;28;20026;-76
2022/07/19 21:14:38;;;;;;;3.78;2.42;;;;;;;;;;10354239;28;20513;-74
2022/07/19 21:19:38;;;;;;;6.68;2.63;;;;;;;;;;10353775;28;20112;-74
2022/07/19 21:24:39;;;;;;;6.40;2.38;;;;;;;;;;10353732;28;20034;-74
2022/07/19 21:29:39;;;;;;;7.85;2.83;;;;;;;;;;10353701;28;20570;-75
2022/07/19 21:34:39;;;;;;;4.45;2.25;;;;;;;;;;10354091;28;20030;-76
2022/07/19 21:39:39;;;;;;;3.67;2.03;;;;;;;;;;10352854;28;20030;-75
2022/07/19 21:44:40;;;;;;;3.17;1.60;;;;;;;;;;10353275;28;20403;-75
2022/07/19 21:49:40;;;;;;;2.47;1.67;;;;;;;;;;10353139;28;20029;-74
2022/07/19 21:54:40;;;;;;;3.13;2.10;;;;;;;;;;10370707;28;20022;-74
2022/07/19 21:59:41;;;;;;;3.83;2.05;;;;;;;;;;10352851;28;20519;-74
2022/07/19 22:04:41;;;;;;;4.25;1.40;;;;;;;;;;10336647;28;20041;-76
2022/07/19 22:09:41;;;;;;;2.88;1.58;;;;;;;;;;10352599;28;20026;-74
2022/07/19 22:14:41;;;;;;;3.42;1.85;;;;;;;;;;10370270;28;20030;-74
2022/07/19 22:19:42;;;;;;;7.57;1.80;;;;;;;;;;10352696;28;20041;-74
2022/07/19 22:24:42;;;;;;;8.77;1.95;;;;;;;;;;10352453;28;20030;-74
2022/07/19 22:29:42;;;;;;;5.43;1.60;;;;;;;;;;10352292;28;20033;-75
2022/07/19 22:34:43;;;;;;;1.92;1.63;;;;;;;;;;10352333;28;20092;-74
2022/07/19 22:39:43;;;;;;;3.17;1.60;;;;;;;;;;10369564;28;20033;-74
2022/07/19 22:44:43;;;;;;;3.28;1.63;;;;;;;;;;10352128;28;20029;-74
2022/07/19 22:49:43;;;;;;;2.97;1.77;;;;;;;;;;10354597;28;20045;-74
2022/07/19 22:54:44;;;;;;;5.60;2.03;;;;;;;;;;10359577;28;20107;-75
2022/07/19 22:59:44;;;;;;;2.38;1.23;;;;;;;;;;10359314;28;20518;-75
2022/07/19 23:04:44;;;;;;;1.95;1.45;;;;;;;;;;10376826;28;20510;-74
2022/07/19 23:09:44;;;;;;;5.43;1.50;;;;;;;;;;10358984;28;20117;-74
2022/07/19 23:14:45;;;;;;;49.60;4.30;;;;;;;;;;10358650;28;20034;-74
2022/07/19 23:19:45;;;;;;;2.50;1.20;;;;;;;;;;10358473;28;20040;-74
2022/07/19 23:24:46;;;;;;;2.08;1.50;;;;;;;;;;10358311;28;20033;-75
2022/07/19 23:29:46;;;;;;;2.60;1.50;;;;;;;;;;10375709;28;20056;-74
2022/07/19 23:34:46;;;;;;;5.67;1.60;;;;;;;;;;10357956;28;20037;-75
2022/07/19 23:39:46;;;;;;;2.50;1.50;;;;;;;;;;10357657;28;20659;-75
2022/07/19 23:44:47;;;;;;;3.58;1.40;;;;;;;;;;10357255;28;20534;-75
2022/07/19 23:49:49;;;;;;;2.15;1.60;;;;;;;;;;10357030;28;20076;-75
2022/07/19 23:54:49;;;;;;;2.85;2.10;;;;;;;;;;10357039;28;20044;-75
2022/07/19 23:59:50;;;;;;;2.80;2.08;;;;;;;;;;10356335;28;20447;-75
